createdAt,value
2019-01-21T05:11:14.547Z,-3.30
2019-01-21T05:14:55.323Z,-3.20
2019-01-21T05:18:09.034Z,-3.10
2019-01-21T05:21:06.383Z,-3.10
2019-01-21T05:23:58.093Z,-3.10
2019-01-21T05:27:17.469Z,-3.10
2019-01-21T05:30:42.587Z,-3.10
2019-01-21T05:33:57.672Z,-3.10
2019-01-21T05:36:53.216Z,-3.10
2019-01-21T05:39:49.692Z,-3.10
2019-01-21T05:42:56.201Z,-3.10
2019-01-21T05:46:03.824Z,-3.10
2019-01-21T05:48:58.538Z,-3.10
2019-01-21T05:52:07.407Z,-3.20
2019-01-21T05:55:31.814Z,-3.20
2019-01-21T05:58:50.478Z,-3.20
2019-01-21T06:02:22.051Z,-3.20
2019-01-21T06:05:26.206Z,-3.30
2019-01-21T06:08:37.565Z,-3.30
2019-01-21T06:11:23.978Z,-3.30
2019-01-21T06:14:34.361Z,-3.40
2019-01-21T06:17:21.587Z,-3.40
2019-01-21T06:20:43.930Z,-3.50
2019-01-21T06:23:49.104Z,-3.40
2019-01-21T06:26:58.671Z,-3.40
2019-01-21T06:29:57.081Z,-3.50
2019-01-21T06:33:04.409Z,-3.50
2019-01-21T06:36:18.177Z,-3.60
2019-01-21T06:39:26.592Z,-3.60
2019-01-21T06:42:22.530Z,-3.60
2019-01-21T06:45:28.322Z,-3.60
2019-01-21T06:48:52.829Z,-3.50
2019-01-21T06:52:11.991Z,-3.50
2019-01-21T06:55:20.735Z,-3.50
2019-01-21T06:58:08.458Z,-3.40
2019-01-21T07:01:18.948Z,-3.40
2019-01-21T07:04:53.627Z,-3.40
2019-01-21T07:07:50.199Z,-3.40
2019-01-21T07:11:03.028Z,-3.40
2019-01-21T07:14:14.998Z,-3.30
2019-01-21T07:17:07.020Z,-3.20
2019-01-21T07:20:10.980Z,-3.30
2019-01-21T07:23:39.629Z,-3.20
2019-01-21T07:26:26.569Z,-3.30
2019-01-21T07:29:30.818Z,-3.30
2019-01-21T07:32:27.505Z,-3.20
2019-01-21T07:35:42.091Z,-3.30
2019-01-21T07:38:37.579Z,-3.20
2019-01-21T07:41:26.674Z,-3.20
2019-01-21T07:44:05.021Z,-3.20
2019-01-21T07:47:04.412Z,-3.20
2019-01-21T07:50:16.526Z,-3.10
2019-01-21T07:53:13.158Z,-3.10
2019-01-21T07:55:59.699Z,-3.20
2019-01-21T07:59:04.789Z,-3.30
2019-01-21T08:01:40.338Z,-3.20
2019-01-21T08:04:53.037Z,-3.30
2019-01-21T08:07:47.723Z,-3.20
2019-01-21T08:10:58.254Z,-3.30
2019-01-21T08:13:39.497Z,-3.30
2019-01-21T08:17:01.104Z,-3.30
2019-01-21T08:19:55.995Z,-3.20
2019-01-21T08:22:47.683Z,-3.20
2019-01-21T08:25:33.804Z,-3.10
2019-01-21T08:28:32.142Z,-3.10
2019-01-21T08:32:03.565Z,-3.00
2019-01-21T08:35:05.632Z,-3.00
2019-01-21T08:38:06.478Z,-3.00
2019-01-21T08:41:14.333Z,-3.00
2019-01-21T08:44:48.860Z,-3.00
2019-01-21T08:47:43.486Z,-3.00
2019-01-21T08:50:24.972Z,-3.00
2019-01-21T08:53:25.752Z,-3.00
2019-01-21T08:56:51.216Z,-3.00
2019-01-21T08:59:46.053Z,-3.00
2019-01-21T09:02:52.401Z,-2.90
2019-01-21T09:06:08.594Z,-3.00
2019-01-21T09:09:06.825Z,-2.90
2019-01-21T09:12:08.322Z,-2.90
2019-01-21T09:15:24.731Z,-2.90
2019-01-21T09:18:34.438Z,-2.70
2019-01-21T09:21:27.105Z,-2.60
2019-01-21T09:24:39.267Z,-2.50
2019-01-21T09:27:26.560Z,-2.30
2019-01-21T09:30:39.837Z,-2.10
2019-01-21T09:33:35.259Z,-2.30
2019-01-21T09:36:51.956Z,-2.20
2019-01-21T09:40:02.437Z,-2.20
2019-01-21T09:43:03.334Z,-2.10
2019-01-21T09:46:08.025Z,-2.00
2019-01-21T09:48:35.828Z,-1.90
2019-01-21T09:51:07.025Z,-1.90
2019-01-21T09:53:37.798Z,-1.80
2019-01-21T09:56:07.899Z,-1.70
2019-01-21T09:58:38.278Z,-1.60
2019-01-21T10:01:09.163Z,-1.50
2019-01-21T10:03:39.079Z,-1.40
2019-01-21T10:06:10.435Z,-1.40
2019-01-21T10:08:59.377Z,-1.50
2019-01-21T10:12:14.870Z,-1.40
2019-01-21T10:15:17.056Z,-1.20
2019-01-21T10:18:20.708Z,-1.10
2019-01-21T10:21:28.282Z,-1.20
2019-01-21T10:24:20.394Z,-1.30
2019-01-21T10:27:28.520Z,-1.40
2019-01-21T10:30:40.546Z,-1.30
2019-01-21T10:34:01.085Z,-1.50
2019-01-21T10:37:25.450Z,-1.40
2019-01-21T10:40:25.707Z,-1.40
2019-01-21T10:43:10.506Z,-1.20
2019-01-21T10:46:24.097Z,-1.10
2019-01-21T10:49:30.706Z,-1.10
2019-01-21T10:52:59.172Z,-1.00
2019-01-21T10:55:37.704Z,-1.00
2019-01-21T10:58:29.840Z,-1.00
2019-01-21T11:01:46.755Z,-1.00
2019-01-21T11:04:52.241Z,-0.90
2019-01-21T11:08:03.855Z,-0.90
2019-01-21T11:11:04.310Z,-0.80
2019-01-21T11:13:55.605Z,-0.90
2019-01-21T11:16:51.528Z,-1.00
2019-01-21T11:19:50.690Z,-1.10
2019-01-21T11:22:32.448Z,-1.00
2019-01-21T11:25:46.205Z,-0.80
2019-01-21T11:28:36.285Z,-0.80
2019-01-21T11:31:38.112Z,-0.70
2019-01-21T11:34:32.807Z,-0.50
2019-01-21T11:37:27.508Z,-0.30
2019-01-21T11:40:28.255Z,-0.40
2019-01-21T11:43:53.582Z,-0.50
2019-01-21T11:46:53.590Z,-0.50
2019-01-21T11:49:31.851Z,-0.80
2019-01-21T11:52:53.836Z,-0.60
2019-01-21T11:55:55.085Z,-0.50
2019-01-21T11:59:19.884Z,-0.40
2019-01-21T12:02:24.790Z,-0.50
2019-01-21T12:05:03.338Z,-0.40
2019-01-21T12:08:22.942Z,-0.40
2019-01-21T12:11:39.033Z,-0.40
2019-01-21T12:14:31.164Z,-0.30
2019-01-21T12:17:40.650Z,-0.30
2019-01-21T12:20:43.789Z,-0.30
2019-01-21T12:23:44.008Z,-0.20
2019-01-21T12:26:43.260Z,-0.20
2019-01-21T12:30:10.645Z,-0.10
2019-01-21T12:33:27.360Z,-0.10
2019-01-21T12:36:42.615Z,-0.20
2019-01-21T12:39:56.860Z,-0.20
2019-01-21T12:43:02.223Z,-0.10
2019-01-21T12:46:24.973Z,-0.10
2019-01-21T12:49:16.249Z,-0.30
2019-01-21T12:52:01.336Z,-0.20
2019-01-21T12:55:05.104Z,-0.10
2019-01-21T12:57:57.766Z,-0.20
2019-01-21T13:00:39.395Z,-0.40
2019-01-21T13:03:18.670Z,-0.20
2019-01-21T13:06:20.710Z,-0.10
2019-01-21T13:09:13.824Z,-0.10
2019-01-21T13:12:15.884Z,-0.10
2019-01-21T13:15:15.464Z,-0.20
2019-01-21T13:18:11.297Z,-0.20
2019-01-21T13:21:06.603Z,-0.20
2019-01-21T13:24:01.780Z,-0.20
2019-01-21T13:26:53.452Z,-0.20
2019-01-21T13:29:34.106Z,0.00
2019-01-21T13:32:43.339Z,-0.30
2019-01-21T13:35:45.704Z,-0.50
2019-01-21T13:39:09.870Z,-0.60
2019-01-21T13:42:15.904Z,-0.60
2019-01-21T13:45:08.677Z,-0.70
2019-01-21T13:47:59.379Z,-0.70
2019-01-21T13:50:38.555Z,-0.70
2019-01-21T13:54:07.093Z,-0.60
2019-01-21T13:56:47.105Z,-0.70
2019-01-21T13:59:41.167Z,-0.60
2019-01-21T14:02:51.342Z,-0.60
2019-01-21T14:05:52.392Z,-0.80
2019-01-21T14:08:40.469Z,-0.70
2019-01-21T14:11:42.323Z,-0.60
2019-01-21T14:14:44.255Z,-0.70
2019-01-21T14:17:45.823Z,-0.60
2019-01-21T14:20:43.608Z,-0.60
2019-01-21T14:23:39.175Z,-0.70
2019-01-21T14:26:40.992Z,-0.70
2019-01-21T14:29:50.699Z,-0.80
2019-01-21T14:32:49.210Z,-0.70
2019-01-21T14:35:35.972Z,-0.80
2019-01-21T14:38:40.913Z,-0.90
2019-01-21T14:41:39.542Z,-1.00
2019-01-21T14:44:51.457Z,-1.00
2019-01-21T14:48:16.781Z,-1.10
2019-01-21T14:51:41.117Z,-1.10
2019-01-21T14:54:30.516Z,-1.00
2019-01-21T14:57:35.664Z,-1.10
2019-01-21T15:00:37.857Z,-1.00
2019-01-21T15:03:45.351Z,-1.10
2019-01-21T15:06:44.975Z,-1.10
2019-01-21T15:10:03.576Z,-1.20
2019-01-21T15:12:46.104Z,-1.20
2019-01-21T15:15:58.476Z,-1.30
2019-01-21T15:18:44.986Z,-1.40
2019-01-21T15:21:25.166Z,-1.40
2019-01-21T15:24:29.168Z,-1.40
2019-01-21T15:27:40.305Z,-1.40
2019-01-21T15:30:24.787Z,-1.50
2019-01-21T15:33:25.595Z,-1.40
2019-01-21T15:36:30.604Z,-1.50
2019-01-21T15:39:35.999Z,-1.50
2019-01-21T15:42:31.354Z,-1.50
2019-01-21T15:45:22.375Z,-1.50
2019-01-21T15:48:42.030Z,-1.60
2019-01-21T15:51:50.813Z,-1.70
2019-01-21T15:55:04.258Z,-1.70
2019-01-21T15:57:46.683Z,-1.70
2019-01-21T16:00:55.305Z,-1.80
2019-01-21T16:04:07.160Z,-1.90
2019-01-21T16:07:25.710Z,-1.90
2019-01-21T16:10:21.497Z,-1.90
2019-01-21T16:13:17.546Z,-2.00
2019-01-21T16:16:35.902Z,-2.00
2019-01-21T16:19:15.313Z,-2.00
2019-01-21T16:22:07.007Z,-2.00
2019-01-21T16:25:10.231Z,-2.00
2019-01-21T16:28:35.967Z,-2.00
2019-01-21T16:31:34.466Z,-2.10
2019-01-21T16:34:49.888Z,-2.20
2019-01-21T16:37:55.027Z,-2.20
2019-01-21T16:40:45.514Z,-2.20
2019-01-21T16:43:14.921Z,-2.30
2019-01-21T16:45:44.118Z,-2.30
2019-01-21T16:48:13.401Z,-2.30
2019-01-21T16:50:42.656Z,-2.40
2019-01-21T16:53:11.944Z,-2.40
2019-01-21T16:55:41.281Z,-2.50
2019-01-21T16:58:10.887Z,-2.50
2019-01-21T17:00:40.451Z,-2.50
2019-01-21T17:03:09.791Z,-2.50
2019-01-21T17:05:39.280Z,-2.50
2019-01-21T17:08:10.955Z,-2.50
2019-01-21T17:10:40.228Z,-2.50
2019-01-21T17:13:09.564Z,-2.50
2019-01-21T17:15:38.842Z,-2.50
2019-01-21T17:18:08.401Z,-2.50
2019-01-21T17:20:38.208Z,-2.50
2019-01-21T17:23:07.580Z,-2.50
2019-01-21T17:25:37.001Z,-2.50
2019-01-21T17:28:06.366Z,-2.50
2019-01-21T17:30:35.703Z,-2.50
2019-01-21T17:33:05.269Z,-2.60
2019-01-21T17:35:34.568Z,-2.60
2019-01-21T17:38:04.156Z,-2.60
2019-01-21T17:40:33.585Z,-2.60
2019-01-21T17:43:02.802Z,-2.60
2019-01-21T17:45:32.069Z,-2.60
2019-01-21T17:48:01.267Z,-2.60
2019-01-21T17:50:30.491Z,-2.70
2019-01-21T17:52:59.808Z,-2.70
2019-01-21T17:55:29.064Z,-2.80
2019-01-21T17:57:58.272Z,-2.80
2019-01-21T18:00:27.551Z,-2.80
2019-01-21T18:02:56.830Z,-2.80
2019-01-21T18:05:26.106Z,-2.80
2019-01-21T18:07:55.416Z,-2.90
2019-01-21T18:10:24.641Z,-2.90
2019-01-21T18:12:54.015Z,-3.00
2019-01-21T18:15:23.346Z,-3.00
2019-01-21T18:17:52.722Z,-3.00
2019-01-21T18:20:25.768Z,-3.00
2019-01-21T18:22:54.975Z,-3.10
2019-01-21T18:25:24.371Z,-3.10
2019-01-21T18:27:53.848Z,-3.10
2019-01-21T18:30:26.126Z,-3.10
2019-01-21T18:32:55.484Z,-3.20
2019-01-21T18:35:24.893Z,-3.20
2019-01-21T18:37:54.730Z,-3.20
2019-01-21T18:40:24.646Z,-3.20
2019-01-21T18:42:53.950Z,-3.30
2019-01-21T18:45:26.341Z,-3.30
2019-01-21T18:47:57.200Z,-3.30
2019-01-21T18:50:26.444Z,-3.30
2019-01-21T18:52:56.054Z,-3.30
2019-01-21T18:55:25.274Z,-3.30
2019-01-21T18:57:56.068Z,-3.30
2019-01-21T19:00:27.129Z,-3.30
2019-01-21T19:02:56.673Z,-3.30
2019-01-21T19:05:26.535Z,-3.30
2019-01-21T19:07:55.728Z,-3.30
2019-01-21T19:10:25.034Z,-3.30
2019-01-21T19:12:54.355Z,-3.30
2019-01-21T19:15:29.315Z,-3.20
2019-01-21T19:17:58.607Z,-3.20
2019-01-21T19:20:27.999Z,-3.30
2019-01-21T19:22:57.296Z,-3.30
2019-01-21T19:25:28.125Z,-3.30
2019-01-21T19:27:57.681Z,-3.40
2019-01-21T19:30:28.181Z,-3.40
2019-01-21T19:32:57.470Z,-3.40
2019-01-21T19:35:32.503Z,-3.40
2019-01-21T19:38:01.905Z,-3.40
2019-01-21T19:40:32.227Z,-3.40
2019-01-21T19:43:02.400Z,-3.40
2019-01-21T19:45:33.156Z,-3.40
2019-01-21T19:48:02.387Z,-3.40
2019-01-21T19:50:31.777Z,-3.40
2019-01-21T19:53:01.105Z,-3.40
2019-01-21T19:55:39.172Z,-3.40
2019-01-21T19:58:13.362Z,-3.40
2019-01-21T20:00:43.289Z,-3.40
2019-01-21T20:03:12.633Z,-3.30
2019-01-21T20:05:41.970Z,-3.30
2019-01-21T20:08:11.286Z,-3.30
2019-01-21T20:10:41.017Z,-3.30
2019-01-21T20:13:10.236Z,-3.30
2019-01-21T20:15:39.556Z,-3.30
2019-01-21T20:18:08.902Z,-3.30
2019-01-21T20:20:40.847Z,-3.40
2019-01-21T20:23:11.999Z,-3.40
2019-01-21T20:25:41.741Z,-3.40
2019-01-21T20:28:11.077Z,-3.40
2019-01-21T20:30:40.735Z,-3.50
2019-01-21T20:33:10.103Z,-3.50
2019-01-21T20:35:39.620Z,-3.60
2019-01-21T20:38:08.884Z,-3.60
2019-01-21T20:40:38.110Z,-3.60
2019-01-21T20:43:07.482Z,-3.70
2019-01-21T20:45:37.147Z,-3.70
2019-01-21T20:48:06.408Z,-3.70
2019-01-21T20:50:35.762Z,-3.70
2019-01-21T20:53:06.400Z,-3.70
2019-01-21T20:55:36.046Z,-3.80
2019-01-21T20:58:05.668Z,-3.80
2019-01-21T21:00:35.839Z,-3.80
2019-01-21T21:03:05.729Z,-3.80
2019-01-21T21:05:35.120Z,-3.90
2019-01-21T21:08:04.767Z,-3.90
2019-01-21T21:10:34.699Z,-3.90
2019-01-21T21:13:04.105Z,-3.90
2019-01-21T21:15:34.420Z,-3.90
2019-01-21T21:18:03.771Z,-3.90
2019-01-21T21:20:33.180Z,-3.80
2019-01-21T21:23:02.626Z,-3.80
2019-01-21T21:25:32.259Z,-3.70
2019-01-21T21:28:01.711Z,-3.70
2019-01-21T21:30:33.156Z,-3.70
2019-01-21T21:33:02.939Z,-3.60
2019-01-21T21:35:32.615Z,-3.60
2019-01-21T21:38:02.046Z,-3.50
2019-01-21T21:40:31.443Z,-3.50
2019-01-21T21:43:00.791Z,-3.50
2019-01-21T21:45:30.186Z,-3.40
2019-01-21T21:48:01.263Z,-3.40
2019-01-21T21:50:32.872Z,-3.40
2019-01-21T21:53:02.878Z,-3.30
2019-01-21T21:55:32.922Z,-3.30
2019-01-21T21:58:02.241Z,-3.30
2019-01-21T22:00:31.666Z,-3.30
2019-01-21T22:03:01.283Z,-3.20
2019-01-21T22:05:30.666Z,-3.20
2019-01-21T22:08:00.042Z,-3.20
2019-01-21T22:10:30.251Z,-3.30
2019-01-21T22:13:00.095Z,-3.20
2019-01-21T22:15:29.598Z,-3.20
2019-01-21T22:18:00.137Z,-3.10
2019-01-21T22:20:29.537Z,-3.10
2019-01-21T22:22:58.939Z,-3.10
2019-01-21T22:25:28.314Z,-3.10
2019-01-21T22:27:57.709Z,-3.10
2019-01-21T22:30:28.079Z,-3.00
